Pagrindinis puslapis
METAR-TAF:

METAR-TAF

Oro uostai :

Manokotak, Aliaska, Jungtinės Amerikos Valstijos

platuma: 58-59-19N, ilguma: 159-02-56W, Aukštis: 16 m

Dabartinis oras

Ataskaita buvo paskelbta 30 minutes, ne 19:20 UTC
Vėjas 11 kt iš Šiaurės/Šiaurės Rytų
Temperatūra -9°C
Drėgmė 92%
Slėgis 1009 hPa
Matomumas: 0.8 km
Apsiniaukę ne aukštis 300 ft
įšaldymas rūko

METAR: PAMB 161920Z AUTO 03011KT 1/2SM FZFG OVC003 M09/M10 A2981 RMK AO2 PWINO FZRANO $

Laikas: 10:50 (19:50 UTC)


TAF: trūkstamas

Orai ataskaitas ir orų prognozės (METAR, TAF).

turimą stotys yra geltonos ir raudonos taškus žemėlapyje.

Perkelti pele per norėdami pamatyti stoties vardą.

Tada spustelėkite, norėdami matyti oro stebėjimo ir prognozės.

Norėdami pakeisti žemėlapį: spustelėkite ant žalios mygtukų su juodo kryžiaus žemyn,; žalią mygtuką su brūkšneliu, jei norite nutolinti; arba žalių rodyklių gretimoms žemėlapius.


METAR-TAF: